sensor_id;sensor_type;location;lat;lon;timestamp;temperature;humidity
27922;DHT22;15261;50.356;10.340;2022-09-23T11:01:32;15.60;99.90
27922;DHT22;15261;50.356;10.340;2022-09-23T11:09:42;15.60;99.90
27922;DHT22;15261;50.356;10.340;2022-09-23T11:12:20;15.60;99.40
27922;DHT22;15261;50.356;10.340;2022-09-23T11:26:02;16.00;97.60
27922;DHT22;15261;50.356;10.340;2022-09-23T11:36:26;16.40;94.60
27922;DHT22;15261;50.356;10.340;2022-09-23T11:42:22;16.40;94.90
27922;DHT22;15261;50.356;10.340;2022-09-23T11:44:55;16.30;95.20
27922;DHT22;15261;50.356;10.340;2022-09-23T11:47:29;16.30;95.90
27922;DHT22;15261;50.356;10.340;2022-09-23T11:50:22;16.30;95.00
27922;DHT22;15261;50.356;10.340;2022-09-23T11:53:07;16.30;94.20
27922;DHT22;15261;50.356;10.340;2022-09-23T11:55:59;16.30;94.30
27922;DHT22;15261;50.356;10.340;2022-09-23T11:58:29;16.20;94.50
27922;DHT22;15261;50.356;10.340;2022-09-23T12:01:07;16.10;94.10
27922;DHT22;15261;50.356;10.340;2022-09-23T12:03:51;16.10;93.70
27922;DHT22;15261;50.356;10.340;2022-09-23T12:06:27;16.10;94.00
27922;DHT22;15261;50.356;10.340;2022-09-23T12:09:31;16.10;93.50
27922;DHT22;15261;50.356;10.340;2022-09-23T12:12:34;16.10;92.80
27922;DHT22;15261;50.356;10.340;2022-09-23T12:15:32;16.20;91.30
27922;DHT22;15261;50.356;10.340;2022-09-23T12:21:19;16.40;90.30
27922;DHT22;15261;50.356;10.340;2022-09-23T12:27:01;16.30;89.20
27922;DHT22;15261;50.356;10.340;2022-09-23T12:29:31;16.30;88.80
27922;DHT22;15261;50.356;10.340;2022-09-23T12:31:58;16.40;87.80
27922;DHT22;15261;50.356;10.340;2022-09-23T12:34:32;16.40;88.10
27922;DHT22;15261;50.356;10.340;2022-09-23T12:37:10;16.40;90.80
27922;DHT22;15261;50.356;10.340;2022-09-23T12:39:37;16.40;92.10
27922;DHT22;15261;50.356;10.340;2022-09-23T12:42:05;16.50;90.40
27922;DHT22;15261;50.356;10.340;2022-09-23T12:44:38;16.40;89.10
27922;DHT22;15261;50.356;10.340;2022-09-23T12:49:40;16.40;89.30
27922;DHT22;15261;50.356;10.340;2022-09-23T12:54:48;16.50;90.10
27922;DHT22;15261;50.356;10.340;2022-09-23T13:00:14;16.50;88.80
27922;DHT22;15261;50.356;10.340;2022-09-23T13:05:42;16.60;89.80
27922;DHT22;15261;50.356;10.340;2022-09-23T13:08:26;16.60;87.10
27922;DHT22;15261;50.356;10.340;2022-09-23T13:10:56;16.70;85.90
27922;DHT22;15261;50.356;10.340;2022-09-23T13:16:19;16.70;86.90
27922;DHT22;15261;50.356;10.340;2022-09-23T13:27:32;16.70;85.30
27922;DHT22;15261;50.356;10.340;2022-09-23T13:33:09;16.60;88.90
27922;DHT22;15261;50.356;10.340;2022-09-23T13:35:43;16.50;86.50
27922;DHT22;15261;50.356;10.340;2022-09-23T13:38:25;16.50;88.00
27922;DHT22;15261;50.356;10.340;2022-09-23T13:43:56;16.50;87.10
27922;DHT22;15261;50.356;10.340;2022-09-23T13:46:26;16.40;88.00
27922;DHT22;15261;50.356;10.340;2022-09-23T13:52:29;16.40;89.30
27922;DHT22;15261;50.356;10.340;2022-09-23T13:54:56;16.40;89.40
27922;DHT22;15261;50.356;10.340;2022-09-23T13:57:33;16.40;87.00
27922;DHT22;15261;50.356;10.340;2022-09-23T14:00:00;16.40;86.70
27922;DHT22;15261;50.356;10.340;2022-09-23T14:02:27;16.50;87.90
27922;DHT22;15261;50.356;10.340;2022-09-23T14:04:58;16.50;88.70
27922;DHT22;15261;50.356;10.340;2022-09-23T14:07:35;16.60;87.40
27922;DHT22;15261;50.356;10.340;2022-09-23T14:10:00;16.60;86.40
27922;DHT22;15261;50.356;10.340;2022-09-23T14:12:27;16.60;86.10
27922;DHT22;15261;50.356;10.340;2022-09-23T14:14:53;16.60;85.50
27922;DHT22;15261;50.356;10.340;2022-09-23T14:17:20;16.70;85.70
27922;DHT22;15261;50.356;10.340;2022-09-23T14:19:47;16.60;86.00
27922;DHT22;15261;50.356;10.340;2022-09-23T14:22:27;16.60;85.40
27922;DHT22;15261;50.356;10.340;2022-09-23T14:24:53;16.60;87.20
27922;DHT22;15261;50.356;10.340;2022-09-23T14:27:27;16.50;85.90
27922;DHT22;15261;50.356;10.340;2022-09-23T14:29:54;16.50;85.70
27922;DHT22;15261;50.356;10.340;2022-09-23T14:32:21;16.50;85.00
27922;DHT22;15261;50.356;10.340;2022-09-23T14:40:32;16.20;87.20
27922;DHT22;15261;50.356;10.340;2022-09-23T14:43:11;16.20;84.30
27922;DHT22;15261;50.356;10.340;2022-09-23T14:45:43;16.20;83.80
27922;DHT22;15261;50.356;10.340;2022-09-23T14:48:16;16.30;82.40
27922;DHT22;15261;50.356;10.340;2022-09-23T14:51:04;16.30;83.40
27922;DHT22;15261;50.356;10.340;2022-09-23T14:58:44;16.10;86.00
27922;DHT22;15261;50.356;10.340;2022-09-23T15:01:33;16.00;85.50
27922;DHT22;15261;50.356;10.340;2022-09-23T15:07:14;15.80;87.10
27922;DHT22;15261;50.356;10.340;2022-09-23T15:09:41;15.70;87.80
27922;DHT22;15261;50.356;10.340;2022-09-23T15:12:14;15.60;86.40
27922;DHT22;15261;50.356;10.340;2022-09-23T15:14:53;15.50;85.30
27922;DHT22;15261;50.356;10.340;2022-09-23T15:17:28;15.40;87.70
27922;DHT22;15261;50.356;10.340;2022-09-23T15:19:57;15.30;90.30
27922;DHT22;15261;50.356;10.340;2022-09-23T15:22:25;15.30;90.50
27922;DHT22;15261;50.356;10.340;2022-09-23T15:24:52;15.20;91.70
27922;DHT22;15261;50.356;10.340;2022-09-23T15:29:51;15.20;90.40
27922;DHT22;15261;50.356;10.340;2022-09-23T15:32:17;15.10;90.30
27922;DHT22;15261;50.356;10.340;2022-09-23T15:34:43;15.20;90.40
27922;DHT22;15261;50.356;10.340;2022-09-23T15:37:12;15.20;90.60
27922;DHT22;15261;50.356;10.340;2022-09-23T15:39:49;15.30;90.00
27922;DHT22;15261;50.356;10.340;2022-09-23T15:42:15;15.30;89.90
27922;DHT22;15261;50.356;10.340;2022-09-23T15:44:42;15.30;90.00
27922;DHT22;15261;50.356;10.340;2022-09-23T15:47:43;15.30;90.00
27922;DHT22;15261;50.356;10.340;2022-09-23T15:50:14;15.20;90.00
27922;DHT22;15261;50.356;10.340;2022-09-23T15:52:58;15.20;90.30
27922;DHT22;15261;50.356;10.340;2022-09-23T15:55:24;15.10;91.00
27922;DHT22;15261;50.356;10.340;2022-09-23T15:57:50;15.00;91.70
27922;DHT22;15261;50.356;10.340;2022-09-23T16:00:15;14.90;91.90
27922;DHT22;15261;50.356;10.340;2022-09-23T16:02:46;14.80;91.70
27922;DHT22;15261;50.356;10.340;2022-09-23T16:05:22;14.70;92.30
27922;DHT22;15261;50.356;10.340;2022-09-23T16:07:49;14.60;92.30
27922;DHT22;15261;50.356;10.340;2022-09-23T16:10:17;14.50;92.80
27922;DHT22;15261;50.356;10.340;2022-09-23T16:12:47;14.30;93.10
27922;DHT22;15261;50.356;10.340;2022-09-23T16:15:16;14.30;93.70
27922;DHT22;15261;50.356;10.340;2022-09-23T16:17:42;14.10;94.00
27922;DHT22;15261;50.356;10.340;2022-09-23T16:20:11;14.00;94.90
27922;DHT22;15261;50.356;10.340;2022-09-23T16:22:55;13.90;95.20
27922;DHT22;15261;50.356;10.340;2022-09-23T16:25:23;13.70;96.00
27922;DHT22;15261;50.356;10.340;2022-09-23T16:27:52;13.60;96.50
27922;DHT22;15261;50.356;10.340;2022-09-23T16:30:20;13.50;96.90
27922;DHT22;15261;50.356;10.340;2022-09-23T16:32:46;13.50;97.10
27922;DHT22;15261;50.356;10.340;2022-09-23T16:35:11;13.40;97.40
27922;DHT22;15261;50.356;10.340;2022-09-23T16:37:59;13.30;97.50
27922;DHT22;15261;50.356;10.340;2022-09-23T16:40:25;13.20;97.60
27922;DHT22;15261;50.356;10.340;2022-09-23T16:42:51;13.20;97.90
27922;DHT22;15261;50.356;10.340;2022-09-23T16:45:20;13.10;97.90
27922;DHT22;15261;50.356;10.340;2022-09-23T16:47:49;13.00;98.20
27922;DHT22;15261;50.356;10.340;2022-09-23T16:50:18;12.90;98.30
27922;DHT22;15261;50.356;10.340;2022-09-23T16:52:52;12.90;98.60
27922;DHT22;15261;50.356;10.340;2022-09-23T16:55:21;12.80;99.10
27922;DHT22;15261;50.356;10.340;2022-09-23T16:57:51;12.80;99.30
27922;DHT22;15261;50.356;10.340;2022-09-23T17:00:18;12.80;99.90
27922;DHT22;15261;50.356;10.340;2022-09-23T17:03:03;12.70;99.90
27922;DHT22;15261;50.356;10.340;2022-09-23T17:05:48;12.60;99.90
27922;DHT22;15261;50.356;10.340;2022-09-23T17:08:15;12.50;99.90
27922;DHT22;15261;50.356;10.340;2022-09-23T17:10:43;12.30;99.90
27922;DHT22;15261;50.356;10.340;2022-09-23T17:13:10;12.30;99.90
27922;DHT22;15261;50.356;10.340;2022-09-23T17:15:39;12.20;99.90
27922;DHT22;15261;50.356;10.340;2022-09-23T17:18:06;12.20;99.90
27922;DHT22;15261;50.356;10.340;2022-09-23T17:24:01;12.30;99.90
27922;DHT22;15261;50.356;10.340;2022-09-23T17:26:28;12.20;99.90
27922;DHT22;15261;50.356;10.340;2022-09-23T17:28:55;12.20;99.90
27922;DHT22;15261;50.356;10.340;2022-09-23T17:31:22;12.20;99.90
27922;DHT22;15261;50.356;10.340;2022-09-23T17:33:53;12.10;99.90
27922;DHT22;15261;50.356;10.340;2022-09-23T17:36:20;12.00;99.90
27922;DHT22;15261;50.356;10.340;2022-09-23T17:38:47;11.90;99.90
27922;DHT22;15261;50.356;10.340;2022-09-23T17:41:13;11.80;99.90
27922;DHT22;15261;50.356;10.340;2022-09-23T17:43:39;11.80;99.90
27922;DHT22;15261;50.356;10.340;2022-09-23T17:46:10;11.70;99.90
27922;DHT22;15261;50.356;10.340;2022-09-23T17:48:40;11.70;99.90
27922;DHT22;15261;50.356;10.340;2022-09-23T17:51:25;11.70;99.90
27922;DHT22;15261;50.356;10.340;2022-09-23T17:53:52;11.60;99.90
27922;DHT22;15261;50.356;10.340;2022-09-23T17:56:25;11.60;99.90
27922;DHT22;15261;50.356;10.340;2022-09-23T17:58:52;11.50;99.90
27922;DHT22;15261;50.356;10.340;2022-09-23T18:01:21;11.50;99.90
27922;DHT22;15261;50.356;10.340;2022-09-23T18:07:08;11.30;99.90
27922;DHT22;15261;50.356;10.340;2022-09-23T18:09:34;11.20;99.90
27922;DHT22;15261;50.356;10.340;2022-09-23T18:11:59;11.10;99.90
27922;DHT22;15261;50.356;10.340;2022-09-23T18:14:25;11.00;99.90
27922;DHT22;15261;50.356;10.340;2022-09-23T18:16:52;11.00;99.90
27922;DHT22;15261;50.356;10.340;2022-09-23T18:19:19;11.00;99.90
27922;DHT22;15261;50.356;10.340;2022-09-23T18:21:48;11.00;99.90
27922;DHT22;15261;50.356;10.340;2022-09-23T18:24:15;10.90;99.90
27922;DHT22;15261;50.356;10.340;2022-09-23T18:26:51;10.90;99.90
27922;DHT22;15261;50.356;10.340;2022-09-23T18:29:19;10.90;99.90
27922;DHT22;15261;50.356;10.340;2022-09-23T18:31:45;10.80;99.90
27922;DHT22;15261;50.356;10.340;2022-09-23T18:34:13;10.80;99.90
27922;DHT22;15261;50.356;10.340;2022-09-23T18:36:43;10.80;99.90
27922;DHT22;15261;50.356;10.340;2022-09-23T18:39:09;10.60;99.90
27922;DHT22;15261;50.356;10.340;2022-09-23T18:41:46;10.60;99.90
27922;DHT22;15261;50.356;10.340;2022-09-23T18:44:15;10.50;99.90
27922;DHT22;15261;50.356;10.340;2022-09-23T18:46:41;10.40;99.90
27922;DHT22;15261;50.356;10.340;2022-09-23T18:49:07;10.40;99.90
27922;DHT22;15261;50.356;10.340;2022-09-23T18:51:56;10.40;99.90
27922;DHT22;15261;50.356;10.340;2022-09-23T18:54:24;10.40;99.90
27922;DHT22;15261;50.356;10.340;2022-09-23T18:56:49;10.40;99.90
27922;DHT22;15261;50.356;10.340;2022-09-23T18:59:18;10.40;99.90
27922;DHT22;15261;50.356;10.340;2022-09-23T19:01:46;10.40;99.90
27922;DHT22;15261;50.356;10.340;2022-09-23T19:04:17;10.40;99.90
27922;DHT22;15261;50.356;10.340;2022-09-23T19:06:43;10.40;99.90
27922;DHT22;15261;50.356;10.340;2022-09-23T19:09:09;10.40;99.90
27922;DHT22;15261;50.356;10.340;2022-09-23T19:11:36;10.40;99.90
27922;DHT22;15261;50.356;10.340;2022-09-23T19:14:04;10.40;99.90
27922;DHT22;15261;50.356;10.340;2022-09-23T19:16:30;10.40;99.90
27922;DHT22;15261;50.356;10.340;2022-09-23T19:18:56;10.40;99.90
27922;DHT22;15261;50.356;10.340;2022-09-23T19:21:24;10.40;99.90
27922;DHT22;15261;50.356;10.340;2022-09-23T19:23:54;10.40;99.90
27922;DHT22;15261;50.356;10.340;2022-09-23T19:26:51;10.30;99.90
27922;DHT22;15261;50.356;10.340;2022-09-23T19:29:18;10.20;99.90
27922;DHT22;15261;50.356;10.340;2022-09-23T19:31:47;10.10;99.90
27922;DHT22;15261;50.356;10.340;2022-09-23T19:34:15;10.20;99.90
27922;DHT22;15261;50.356;10.340;2022-09-23T19:36:42;10.20;99.90
27922;DHT22;15261;50.356;10.340;2022-09-23T19:39:20;10.20;99.90
27922;DHT22;15261;50.356;10.340;2022-09-23T19:41:47;10.20;99.90
27922;DHT22;15261;50.356;10.340;2022-09-23T19:44:13;10.20;99.90
27922;DHT22;15261;50.356;10.340;2022-09-23T19:46:40;10.20;99.90
27922;DHT22;15261;50.356;10.340;2022-09-23T19:49:08;10.30;99.90
27922;DHT22;15261;50.356;10.340;2022-09-23T19:51:35;10.30;99.90
27922;DHT22;15261;50.356;10.340;2022-09-23T19:54:02;10.30;99.90
27922;DHT22;15261;50.356;10.340;2022-09-23T19:56:29;10.30;99.90
27922;DHT22;15261;50.356;10.340;2022-09-23T19:58:55;10.30;99.90
27922;DHT22;15261;50.356;10.340;2022-09-23T20:01:22;10.30;99.90
27922;DHT22;15261;50.356;10.340;2022-09-23T20:03:48;10.20;99.90
27922;DHT22;15261;50.356;10.340;2022-09-23T20:06:15;10.20;99.90
27922;DHT22;15261;50.356;10.340;2022-09-23T20:08:42;10.10;99.90
27922;DHT22;15261;50.356;10.340;2022-09-23T20:11:13;10.10;99.90
27922;DHT22;15261;50.356;10.340;2022-09-23T20:13:40;10.10;99.90
27922;DHT22;15261;50.356;10.340;2022-09-23T20:16:07;10.10;99.90
27922;DHT22;15261;50.356;10.340;2022-09-23T20:18:39;10.10;99.90
27922;DHT22;15261;50.356;10.340;2022-09-23T20:21:07;10.10;99.90
27922;DHT22;15261;50.356;10.340;2022-09-23T20:23:33;10.00;99.90
27922;DHT22;15261;50.356;10.340;2022-09-23T20:26:00;10.00;99.90
27922;DHT22;15261;50.356;10.340;2022-09-23T20:28:44;10.00;99.90
27922;DHT22;15261;50.356;10.340;2022-09-23T20:31:10;10.00;99.90
27922;DHT22;15261;50.356;10.340;2022-09-23T20:33:39;9.80;99.90
27922;DHT22;15261;50.356;10.340;2022-09-23T20:36:06;9.80;99.90
27922;DHT22;15261;50.356;10.340;2022-09-23T20:38:32;9.80;99.90
27922;DHT22;15261;50.356;10.340;2022-09-23T20:40:58;9.90;99.90
27922;DHT22;15261;50.356;10.340;2022-09-23T20:43:24;9.80;99.90
27922;DHT22;15261;50.356;10.340;2022-09-23T20:45:51;9.80;99.90
27922;DHT22;15261;50.356;10.340;2022-09-23T20:48:21;9.80;99.90
27922;DHT22;15261;50.356;10.340;2022-09-23T20:54:02;9.80;99.90
27922;DHT22;15261;50.356;10.340;2022-09-23T20:56:28;9.80;99.90
27922;DHT22;15261;50.356;10.340;2022-09-23T20:58:58;9.90;99.90
27922;DHT22;15261;50.356;10.340;2022-09-23T21:01:24;9.80;99.90
27922;DHT22;15261;50.356;10.340;2022-09-23T21:03:51;9.90;99.90
27922;DHT22;15261;50.356;10.340;2022-09-23T21:06:17;9.80;99.90
27922;DHT22;15261;50.356;10.340;2022-09-23T21:08:44;9.90;99.90
27922;DHT22;15261;50.356;10.340;2022-09-23T21:11:12;9.90;99.90
27922;DHT22;15261;50.356;10.340;2022-09-23T21:13:39;9.80;99.90
27922;DHT22;15261;50.356;10.340;2022-09-23T21:16:10;9.90;99.90
27922;DHT22;15261;50.356;10.340;2022-09-23T21:18:37;9.90;99.90
27922;DHT22;15261;50.356;10.340;2022-09-23T21:21:03;10.00;99.90
27922;DHT22;15261;50.356;10.340;2022-09-23T21:23:34;10.00;99.90
27922;DHT22;15261;50.356;10.340;2022-09-23T21:26:03;10.00;99.90
27922;DHT22;15261;50.356;10.340;2022-09-23T21:28:31;10.00;99.90
27922;DHT22;15261;50.356;10.340;2022-09-23T21:31:02;10.10;99.90
27922;DHT22;15261;50.356;10.340;2022-09-23T21:33:28;10.20;99.90
27922;DHT22;15261;50.356;10.340;2022-09-23T21:35:55;10.20;99.90
27922;DHT22;15261;50.356;10.340;2022-09-23T21:38:22;10.30;99.90
27922;DHT22;15261;50.356;10.340;2022-09-23T21:40:48;10.30;99.90
27922;DHT22;15261;50.356;10.340;2022-09-23T21:43:27;10.30;99.90
27922;DHT22;15261;50.356;10.340;2022-09-23T21:45:55;10.20;99.90
27922;DHT22;15261;50.356;10.340;2022-09-23T21:48:28;10.20;99.90
27922;DHT22;15261;50.356;10.340;2022-09-23T21:50:59;10.20;99.90
27922;DHT22;15261;50.356;10.340;2022-09-23T21:53:26;10.10;99.90
27922;DHT22;15261;50.356;10.340;2022-09-23T21:56:11;10.10;99.90
27922;DHT22;15261;50.356;10.340;2022-09-23T21:58:38;10.20;99.90
27922;DHT22;15261;50.356;10.340;2022-09-23T22:01:30;10.10;99.90
27922;DHT22;15261;50.356;10.340;2022-09-23T22:04:05;10.00;99.90
27922;DHT22;15261;50.356;10.340;2022-09-23T22:06:36;10.00;99.90
27922;DHT22;15261;50.356;10.340;2022-09-23T22:09:09;9.90;99.90
27922;DHT22;15261;50.356;10.340;2022-09-23T22:11:36;10.00;99.90
27922;DHT22;15261;50.356;10.340;2022-09-23T22:14:22;10.00;99.90
27922;DHT22;15261;50.356;10.340;2022-09-23T22:16:51;9.90;99.90
27922;DHT22;15261;50.356;10.340;2022-09-23T22:19:17;9.80;99.90
27922;DHT22;15261;50.356;10.340;2022-09-23T22:21:44;9.80;99.90
27922;DHT22;15261;50.356;10.340;2022-09-23T22:24:10;9.80;99.90
27922;DHT22;15261;50.356;10.340;2022-09-23T22:26:38;9.80;99.90
27922;DHT22;15261;50.356;10.340;2022-09-23T22:29:06;9.80;99.90
27922;DHT22;15261;50.356;10.340;2022-09-23T22:31:52;9.80;99.90
27922;DHT22;15261;50.356;10.340;2022-09-23T22:34:36;9.80;99.90
27922;DHT22;15261;50.356;10.340;2022-09-23T22:37:03;9.70;99.90
27922;DHT22;15261;50.356;10.340;2022-09-23T22:39:29;9.60;99.90
27922;DHT22;15261;50.356;10.340;2022-09-23T22:41:55;9.50;99.90
27922;DHT22;15261;50.356;10.340;2022-09-23T22:44:21;9.50;99.90
27922;DHT22;15261;50.356;10.340;2022-09-23T22:46:47;9.50;99.90
27922;DHT22;15261;50.356;10.340;2022-09-23T22:49:13;9.40;99.90
27922;DHT22;15261;50.356;10.340;2022-09-23T22:51:40;9.40;99.90
27922;DHT22;15261;50.356;10.340;2022-09-23T22:54:07;9.30;99.90
27922;DHT22;15261;50.356;10.340;2022-09-23T22:56:33;9.30;99.90
27922;DHT22;15261;50.356;10.340;2022-09-23T22:59:00;9.30;99.90
27922;DHT22;15261;50.356;10.340;2022-09-23T23:01:28;9.30;99.90
27922;DHT22;15261;50.356;10.340;2022-09-23T23:03:55;9.30;99.90
27922;DHT22;15261;50.356;10.340;2022-09-23T23:06:22;9.30;99.90
27922;DHT22;15261;50.356;10.340;2022-09-23T23:08:48;9.20;99.90
27922;DHT22;15261;50.356;10.340;2022-09-23T23:11:14;9.20;99.90
27922;DHT22;15261;50.356;10.340;2022-09-23T23:13:40;9.20;99.90
27922;DHT22;15261;50.356;10.340;2022-09-23T23:16:08;9.10;99.90
27922;DHT22;15261;50.356;10.340;2022-09-23T23:18:37;9.20;99.90
27922;DHT22;15261;50.356;10.340;2022-09-23T23:21:09;9.20;99.90
27922;DHT22;15261;50.356;10.340;2022-09-23T23:23:45;9.20;99.90
27922;DHT22;15261;50.356;10.340;2022-09-23T23:26:16;9.10;99.90
27922;DHT22;15261;50.356;10.340;2022-09-23T23:28:44;9.00;99.90
27922;DHT22;15261;50.356;10.340;2022-09-23T23:31:11;9.00;99.90
27922;DHT22;15261;50.356;10.340;2022-09-23T23:33:38;8.90;99.90
27922;DHT22;15261;50.356;10.340;2022-09-23T23:36:05;8.90;99.90
27922;DHT22;15261;50.356;10.340;2022-09-23T23:38:37;8.80;99.90
27922;DHT22;15261;50.356;10.340;2022-09-23T23:41:04;8.80;99.90
27922;DHT22;15261;50.356;10.340;2022-09-23T23:43:30;8.60;99.90
27922;DHT22;15261;50.356;10.340;2022-09-23T23:45:56;8.60;99.90
27922;DHT22;15261;50.356;10.340;2022-09-23T23:48:22;8.50;99.90
27922;DHT22;15261;50.356;10.340;2022-09-23T23:50:56;8.60;99.90
27922;DHT22;15261;50.356;10.340;2022-09-23T23:53:23;8.60;99.90
27922;DHT22;15261;50.356;10.340;2022-09-23T23:55:50;8.60;99.90
27922;DHT22;15261;50.356;10.340;2022-09-23T23:58:16;8.50;99.90
